sensor_id;sensor_type;location;lat;lon;timestamp;P1;durP1;ratioP1;P2;durP2;ratioP2
2338;SDS011;1180;51.438;6.978;2024-03-17T00:00:32;6.27;;;3.80;;
2338;SDS011;1180;51.438;6.978;2024-03-17T00:02:57;6.63;;;3.73;;
2338;SDS011;1180;51.438;6.978;2024-03-17T00:05:23;6.63;;;3.00;;
2338;SDS011;1180;51.438;6.978;2024-03-17T00:07:48;3.33;;;3.03;;
2338;SDS011;1180;51.438;6.978;2024-03-17T00:10:14;3.40;;;2.90;;
2338;SDS011;1180;51.438;6.978;2024-03-17T00:12:40;3.80;;;3.00;;
2338;SDS011;1180;51.438;6.978;2024-03-17T00:15:06;4.23;;;2.80;;
2338;SDS011;1180;51.438;6.978;2024-03-17T00:17:34;6.50;;;3.60;;
2338;SDS011;1180;51.438;6.978;2024-03-17T00:20:02;4.20;;;3.10;;
2338;SDS011;1180;51.438;6.978;2024-03-17T00:22:34;6.10;;;4.20;;
2338;SDS011;1180;51.438;6.978;2024-03-17T00:25:05;9.40;;;3.30;;
2338;SDS011;1180;51.438;6.978;2024-03-17T00:27:31;4.77;;;3.40;;
2338;SDS011;1180;51.438;6.978;2024-03-17T00:29:58;8.30;;;3.73;;
2338;SDS011;1180;51.438;6.978;2024-03-17T00:32:23;8.77;;;3.97;;
2338;SDS011;1180;51.438;6.978;2024-03-17T00:34:49;8.33;;;3.30;;
2338;SDS011;1180;51.438;6.978;2024-03-17T00:37:15;9.23;;;3.67;;
2338;SDS011;1180;51.438;6.978;2024-03-17T00:39:40;14.83;;;4.30;;
2338;SDS011;1180;51.438;6.978;2024-03-17T00:42:06;4.07;;;3.20;;
2338;SDS011;1180;51.438;6.978;2024-03-17T00:44:31;4.90;;;2.70;;
2338;SDS011;1180;51.438;6.978;2024-03-17T00:46:57;5.30;;;4.23;;
2338;SDS011;1180;51.438;6.978;2024-03-17T00:49:24;3.83;;;3.47;;
2338;SDS011;1180;51.438;6.978;2024-03-17T00:51:50;7.80;;;3.10;;
2338;SDS011;1180;51.438;6.978;2024-03-17T00:54:16;5.00;;;2.80;;
2338;SDS011;1180;51.438;6.978;2024-03-17T00:56:43;6.90;;;3.00;;
2338;SDS011;1180;51.438;6.978;2024-03-17T00:59:09;5.07;;;3.40;;
2338;SDS011;1180;51.438;6.978;2024-03-17T01:01:34;5.73;;;2.73;;
2338;SDS011;1180;51.438;6.978;2024-03-17T01:04:00;3.60;;;3.13;;
2338;SDS011;1180;51.438;6.978;2024-03-17T01:06:25;4.60;;;3.27;;
2338;SDS011;1180;51.438;6.978;2024-03-17T01:08:51;5.67;;;2.70;;
2338;SDS011;1180;51.438;6.978;2024-03-17T01:11:17;5.00;;;2.97;;
2338;SDS011;1180;51.438;6.978;2024-03-17T01:13:44;5.50;;;2.70;;
2338;SDS011;1180;51.438;6.978;2024-03-17T01:16:13;3.60;;;3.13;;
2338;SDS011;1180;51.438;6.978;2024-03-17T01:18:40;5.00;;;3.47;;
2338;SDS011;1180;51.438;6.978;2024-03-17T01:21:08;4.83;;;3.20;;
2338;SDS011;1180;51.438;6.978;2024-03-17T01:23:34;3.83;;;2.77;;
2338;SDS011;1180;51.438;6.978;2024-03-17T01:25:59;4.40;;;3.40;;
2338;SDS011;1180;51.438;6.978;2024-03-17T01:28:25;4.63;;;3.47;;
2338;SDS011;1180;51.438;6.978;2024-03-17T01:30:52;5.23;;;3.47;;
2338;SDS011;1180;51.438;6.978;2024-03-17T01:33:17;6.43;;;3.53;;
2338;SDS011;1180;51.438;6.978;2024-03-17T01:35:43;3.43;;;2.87;;
2338;SDS011;1180;51.438;6.978;2024-03-17T01:38:09;5.33;;;3.23;;
2338;SDS011;1180;51.438;6.978;2024-03-17T01:40:35;5.30;;;3.43;;
2338;SDS011;1180;51.438;6.978;2024-03-17T01:43:01;5.70;;;2.90;;
2338;SDS011;1180;51.438;6.978;2024-03-17T01:45:31;3.00;;;2.80;;
2338;SDS011;1180;51.438;6.978;2024-03-17T01:48:01;5.37;;;3.10;;
2338;SDS011;1180;51.438;6.978;2024-03-17T01:50:31;4.47;;;2.70;;
2338;SDS011;1180;51.438;6.978;2024-03-17T01:53:01;3.70;;;2.93;;
2338;SDS011;1180;51.438;6.978;2024-03-17T01:55:30;5.47;;;3.70;;
2338;SDS011;1180;51.438;6.978;2024-03-17T01:58:00;4.80;;;2.97;;
2338;SDS011;1180;51.438;6.978;2024-03-17T02:00:27;4.57;;;4.00;;
2338;SDS011;1180;51.438;6.978;2024-03-17T02:02:55;8.80;;;3.13;;
2338;SDS011;1180;51.438;6.978;2024-03-17T02:05:20;7.53;;;3.13;;
2338;SDS011;1180;51.438;6.978;2024-03-17T02:07:46;5.20;;;3.00;;
2338;SDS011;1180;51.438;6.978;2024-03-17T02:10:11;6.13;;;3.43;;
2338;SDS011;1180;51.438;6.978;2024-03-17T02:12:37;4.10;;;3.20;;
2338;SDS011;1180;51.438;6.978;2024-03-17T02:15:03;5.90;;;3.30;;
2338;SDS011;1180;51.438;6.978;2024-03-17T02:17:30;4.17;;;2.70;;
2338;SDS011;1180;51.438;6.978;2024-03-17T02:19:57;4.20;;;3.70;;
2338;SDS011;1180;51.438;6.978;2024-03-17T02:22:22;6.13;;;3.13;;
2338;SDS011;1180;51.438;6.978;2024-03-17T02:24:48;6.87;;;2.90;;
2338;SDS011;1180;51.438;6.978;2024-03-17T02:27:14;4.43;;;3.30;;
2338;SDS011;1180;51.438;6.978;2024-03-17T02:29:40;5.27;;;2.97;;
2338;SDS011;1180;51.438;6.978;2024-03-17T02:32:06;2.90;;;2.50;;
2338;SDS011;1180;51.438;6.978;2024-03-17T02:34:33;6.17;;;3.20;;
2338;SDS011;1180;51.438;6.978;2024-03-17T02:36:59;7.67;;;2.70;;
2338;SDS011;1180;51.438;6.978;2024-03-17T02:39:26;6.17;;;3.27;;
2338;SDS011;1180;51.438;6.978;2024-03-17T02:42:05;4.10;;;3.07;;
2338;SDS011;1180;51.438;6.978;2024-03-17T02:44:35;3.67;;;3.30;;
2338;SDS011;1180;51.438;6.978;2024-03-17T02:47:03;7.47;;;3.40;;
2338;SDS011;1180;51.438;6.978;2024-03-17T02:49:30;7.57;;;3.90;;
2338;SDS011;1180;51.438;6.978;2024-03-17T02:52:04;4.80;;;3.37;;
2338;SDS011;1180;51.438;6.978;2024-03-17T02:54:37;6.53;;;3.60;;
2338;SDS011;1180;51.438;6.978;2024-03-17T02:57:04;7.07;;;3.90;;
2338;SDS011;1180;51.438;6.978;2024-03-17T02:59:34;8.63;;;4.80;;
2338;SDS011;1180;51.438;6.978;2024-03-17T03:02:00;4.80;;;4.07;;
2338;SDS011;1180;51.438;6.978;2024-03-17T03:04:26;9.03;;;4.27;;
2338;SDS011;1180;51.438;6.978;2024-03-17T03:06:52;7.03;;;5.03;;
2338;SDS011;1180;51.438;6.978;2024-03-17T03:09:18;9.03;;;5.67;;
2338;SDS011;1180;51.438;6.978;2024-03-17T03:11:56;11.80;;;6.00;;
2338;SDS011;1180;51.438;6.978;2024-03-17T03:14:21;6.50;;;5.80;;
2338;SDS011;1180;51.438;6.978;2024-03-17T03:16:47;7.53;;;5.67;;
2338;SDS011;1180;51.438;6.978;2024-03-17T03:19:14;9.60;;;5.97;;
2338;SDS011;1180;51.438;6.978;2024-03-17T03:21:40;8.17;;;6.43;;
2338;SDS011;1180;51.438;6.978;2024-03-17T03:24:06;6.90;;;5.23;;
2338;SDS011;1180;51.438;6.978;2024-03-17T03:26:31;8.37;;;6.40;;
2338;SDS011;1180;51.438;6.978;2024-03-17T03:28:57;8.97;;;5.87;;
2338;SDS011;1180;51.438;6.978;2024-03-17T03:31:22;9.83;;;6.23;;
2338;SDS011;1180;51.438;6.978;2024-03-17T03:33:48;10.87;;;6.53;;
2338;SDS011;1180;51.438;6.978;2024-03-17T03:36:14;9.40;;;6.50;;
2338;SDS011;1180;51.438;6.978;2024-03-17T03:38:41;10.03;;;7.10;;
2338;SDS011;1180;51.438;6.978;2024-03-17T03:41:14;11.00;;;6.03;;
2338;SDS011;1180;51.438;6.978;2024-03-17T03:43:41;10.20;;;6.20;;
2338;SDS011;1180;51.438;6.978;2024-03-17T03:46:09;10.37;;;5.93;;
2338;SDS011;1180;51.438;6.978;2024-03-17T03:48:35;10.30;;;7.20;;
2338;SDS011;1180;51.438;6.978;2024-03-17T03:51:04;9.33;;;6.00;;
2338;SDS011;1180;51.438;6.978;2024-03-17T03:53:31;8.13;;;6.10;;
2338;SDS011;1180;51.438;6.978;2024-03-17T03:55:57;9.27;;;6.70;;
2338;SDS011;1180;51.438;6.978;2024-03-17T03:58:26;10.10;;;6.43;;
2338;SDS011;1180;51.438;6.978;2024-03-17T04:00:54;8.73;;;6.73;;
2338;SDS011;1180;51.438;6.978;2024-03-17T04:03:20;9.50;;;7.67;;
2338;SDS011;1180;51.438;6.978;2024-03-17T04:05:46;12.20;;;7.03;;
2338;SDS011;1180;51.438;6.978;2024-03-17T04:08:11;9.13;;;7.60;;
2338;SDS011;1180;51.438;6.978;2024-03-17T04:10:37;11.57;;;6.87;;
2338;SDS011;1180;51.438;6.978;2024-03-17T04:13:02;10.00;;;6.77;;
2338;SDS011;1180;51.438;6.978;2024-03-17T04:15:28;10.33;;;6.23;;
2338;SDS011;1180;51.438;6.978;2024-03-17T04:17:54;13.37;;;7.83;;
2338;SDS011;1180;51.438;6.978;2024-03-17T04:20:19;6.93;;;6.17;;
2338;SDS011;1180;51.438;6.978;2024-03-17T04:22:46;10.87;;;6.13;;
2338;SDS011;1180;51.438;6.978;2024-03-17T04:25:13;10.17;;;6.70;;
2338;SDS011;1180;51.438;6.978;2024-03-17T04:27:40;12.93;;;6.57;;
2338;SDS011;1180;51.438;6.978;2024-03-17T04:30:06;9.30;;;5.90;;
2338;SDS011;1180;51.438;6.978;2024-03-17T04:32:32;7.00;;;5.50;;
2338;SDS011;1180;51.438;6.978;2024-03-17T04:34:58;10.60;;;8.20;;
2338;SDS011;1180;51.438;6.978;2024-03-17T04:37:24;12.13;;;7.30;;
2338;SDS011;1180;51.438;6.978;2024-03-17T04:39:50;11.13;;;6.90;;
2338;SDS011;1180;51.438;6.978;2024-03-17T04:42:16;9.50;;;6.67;;
2338;SDS011;1180;51.438;6.978;2024-03-17T04:44:43;12.60;;;7.40;;
2338;SDS011;1180;51.438;6.978;2024-03-17T04:47:09;8.30;;;6.73;;
2338;SDS011;1180;51.438;6.978;2024-03-17T04:49:44;12.57;;;7.67;;
2338;SDS011;1180;51.438;6.978;2024-03-17T04:52:10;8.80;;;6.60;;
2338;SDS011;1180;51.438;6.978;2024-03-17T04:54:36;9.10;;;7.27;;
2338;SDS011;1180;51.438;6.978;2024-03-17T04:57:02;7.77;;;6.23;;
2338;SDS011;1180;51.438;6.978;2024-03-17T04:59:29;7.17;;;6.20;;
2338;SDS011;1180;51.438;6.978;2024-03-17T05:01:56;9.53;;;7.30;;
2338;SDS011;1180;51.438;6.978;2024-03-17T05:04:21;9.43;;;6.97;;
2338;SDS011;1180;51.438;6.978;2024-03-17T05:06:51;9.37;;;7.10;;
2338;SDS011;1180;51.438;6.978;2024-03-17T05:09:17;19.90;;;11.70;;
2338;SDS011;1180;51.438;6.978;2024-03-17T05:11:43;12.40;;;8.70;;
2338;SDS011;1180;51.438;6.978;2024-03-17T05:14:08;9.43;;;7.83;;
2338;SDS011;1180;51.438;6.978;2024-03-17T05:16:34;7.77;;;6.53;;
2338;SDS011;1180;51.438;6.978;2024-03-17T05:19:00;14.10;;;7.53;;
2338;SDS011;1180;51.438;6.978;2024-03-17T05:21:26;6.40;;;5.40;;
2338;SDS011;1180;51.438;6.978;2024-03-17T05:23:55;7.63;;;6.20;;
2338;SDS011;1180;51.438;6.978;2024-03-17T05:26:21;8.57;;;6.70;;
2338;SDS011;1180;51.438;6.978;2024-03-17T05:28:47;11.20;;;6.00;;
2338;SDS011;1180;51.438;6.978;2024-03-17T05:31:13;7.53;;;6.00;;
2338;SDS011;1180;51.438;6.978;2024-03-17T05:33:43;7.63;;;6.27;;
2338;SDS011;1180;51.438;6.978;2024-03-17T05:36:11;7.50;;;5.70;;
2338;SDS011;1180;51.438;6.978;2024-03-17T05:38:37;9.17;;;6.87;;
2338;SDS011;1180;51.438;6.978;2024-03-17T05:41:03;6.03;;;4.97;;
2338;SDS011;1180;51.438;6.978;2024-03-17T05:43:33;7.07;;;4.87;;
2338;SDS011;1180;51.438;6.978;2024-03-17T05:46:04;9.83;;;6.00;;
2338;SDS011;1180;51.438;6.978;2024-03-17T05:48:34;8.13;;;5.93;;
2338;SDS011;1180;51.438;6.978;2024-03-17T05:51:03;6.30;;;4.67;;
2338;SDS011;1180;51.438;6.978;2024-03-17T05:53:32;6.70;;;5.00;;
2338;SDS011;1180;51.438;6.978;2024-03-17T05:55:59;6.93;;;4.90;;
2338;SDS011;1180;51.438;6.978;2024-03-17T05:58:25;6.53;;;5.20;;
2338;SDS011;1180;51.438;6.978;2024-03-17T06:00:51;5.90;;;4.50;;
2338;SDS011;1180;51.438;6.978;2024-03-17T06:03:16;5.53;;;4.10;;
2338;SDS011;1180;51.438;6.978;2024-03-17T06:05:43;5.63;;;4.13;;
2338;SDS011;1180;51.438;6.978;2024-03-17T06:08:11;7.97;;;4.80;;
2338;SDS011;1180;51.438;6.978;2024-03-17T06:10:41;3.80;;;3.50;;
2338;SDS011;1180;51.438;6.978;2024-03-17T06:13:09;5.70;;;4.77;;
2338;SDS011;1180;51.438;6.978;2024-03-17T06:15:38;5.13;;;4.30;;
2338;SDS011;1180;51.438;6.978;2024-03-17T06:18:05;5.40;;;4.23;;
2338;SDS011;1180;51.438;6.978;2024-03-17T06:20:34;4.87;;;4.37;;
2338;SDS011;1180;51.438;6.978;2024-03-17T06:23:00;3.30;;;2.93;;
2338;SDS011;1180;51.438;6.978;2024-03-17T06:25:26;5.77;;;4.20;;
2338;SDS011;1180;51.438;6.978;2024-03-17T06:27:54;3.10;;;2.60;;
2338;SDS011;1180;51.438;6.978;2024-03-17T06:30:19;6.37;;;3.47;;
2338;SDS011;1180;51.438;6.978;2024-03-17T06:32:46;4.10;;;3.47;;
2338;SDS011;1180;51.438;6.978;2024-03-17T06:35:13;5.13;;;2.77;;
2338;SDS011;1180;51.438;6.978;2024-03-17T06:37:51;3.80;;;3.17;;
2338;SDS011;1180;51.438;6.978;2024-03-17T06:40:17;3.50;;;3.20;;
2338;SDS011;1180;51.438;6.978;2024-03-17T06:42:43;8.23;;;3.40;;
2338;SDS011;1180;51.438;6.978;2024-03-17T06:45:09;4.43;;;3.07;;
2338;SDS011;1180;51.438;6.978;2024-03-17T06:47:38;5.50;;;3.13;;
2338;SDS011;1180;51.438;6.978;2024-03-17T06:50:05;3.33;;;2.97;;
2338;SDS011;1180;51.438;6.978;2024-03-17T06:52:35;3.00;;;2.70;;
2338;SDS011;1180;51.438;6.978;2024-03-17T06:55:02;4.87;;;3.17;;
2338;SDS011;1180;51.438;6.978;2024-03-17T06:57:28;4.13;;;3.23;;
2338;SDS011;1180;51.438;6.978;2024-03-17T06:59:53;4.77;;;2.87;;
2338;SDS011;1180;51.438;6.978;2024-03-17T07:02:19;4.17;;;3.03;;
2338;SDS011;1180;51.438;6.978;2024-03-17T07:04:45;3.83;;;2.83;;
2338;SDS011;1180;51.438;6.978;2024-03-17T07:07:12;3.17;;;2.87;;
2338;SDS011;1180;51.438;6.978;2024-03-17T07:09:39;3.77;;;2.93;;
2338;SDS011;1180;51.438;6.978;2024-03-17T07:12:06;3.83;;;2.93;;
2338;SDS011;1180;51.438;6.978;2024-03-17T07:14:32;3.07;;;2.70;;
2338;SDS011;1180;51.438;6.978;2024-03-17T07:16:58;7.60;;;2.67;;
2338;SDS011;1180;51.438;6.978;2024-03-17T07:19:24;3.23;;;2.60;;
2338;SDS011;1180;51.438;6.978;2024-03-17T07:21:49;4.57;;;2.40;;
2338;SDS011;1180;51.438;6.978;2024-03-17T07:24:15;3.57;;;2.20;;
2338;SDS011;1180;51.438;6.978;2024-03-17T07:26:41;2.20;;;2.00;;
2338;SDS011;1180;51.438;6.978;2024-03-17T07:29:06;2.97;;;2.40;;
2338;SDS011;1180;51.438;6.978;2024-03-17T07:31:33;3.50;;;2.30;;
2338;SDS011;1180;51.438;6.978;2024-03-17T07:33:59;2.93;;;2.50;;
2338;SDS011;1180;51.438;6.978;2024-03-17T07:36:25;1.73;;;1.63;;
2338;SDS011;1180;51.438;6.978;2024-03-17T07:38:50;3.40;;;2.20;;
2338;SDS011;1180;51.438;6.978;2024-03-17T07:41:17;2.87;;;2.60;;
2338;SDS011;1180;51.438;6.978;2024-03-17T07:43:44;2.97;;;2.40;;
2338;SDS011;1180;51.438;6.978;2024-03-17T07:46:11;3.40;;;2.53;;
2338;SDS011;1180;51.438;6.978;2024-03-17T07:48:37;3.40;;;2.07;;
2338;SDS011;1180;51.438;6.978;2024-03-17T07:51:08;2.13;;;1.83;;
2338;SDS011;1180;51.438;6.978;2024-03-17T07:53:36;4.90;;;2.60;;
2338;SDS011;1180;51.438;6.978;2024-03-17T07:56:07;2.27;;;1.63;;
2338;SDS011;1180;51.438;6.978;2024-03-17T07:58:43;2.40;;;2.20;;
2338;SDS011;1180;51.438;6.978;2024-03-17T08:01:10;3.53;;;2.53;;
2338;SDS011;1180;51.438;6.978;2024-03-17T08:03:40;2.73;;;2.40;;
2338;SDS011;1180;51.438;6.978;2024-03-17T08:06:09;2.43;;;2.23;;
2338;SDS011;1180;51.438;6.978;2024-03-17T08:08:36;3.73;;;2.67;;
2338;SDS011;1180;51.438;6.978;2024-03-17T08:11:02;2.50;;;2.30;;
2338;SDS011;1180;51.438;6.978;2024-03-17T08:13:28;3.27;;;2.80;;
2338;SDS011;1180;51.438;6.978;2024-03-17T08:15:59;4.40;;;3.03;;
2338;SDS011;1180;51.438;6.978;2024-03-17T08:18:31;3.70;;;3.10;;
2338;SDS011;1180;51.438;6.978;2024-03-17T08:20:57;2.93;;;2.60;;
2338;SDS011;1180;51.438;6.978;2024-03-17T08:23:23;4.70;;;3.10;;
2338;SDS011;1180;51.438;6.978;2024-03-17T08:26:07;2.73;;;2.53;;
2338;SDS011;1180;51.438;6.978;2024-03-17T08:28:33;3.10;;;2.80;;
2338;SDS011;1180;51.438;6.978;2024-03-17T08:31:00;3.60;;;2.73;;
2338;SDS011;1180;51.438;6.978;2024-03-17T08:33:26;3.47;;;2.33;;
2338;SDS011;1180;51.438;6.978;2024-03-17T08:36:06;3.47;;;2.53;;
2338;SDS011;1180;51.438;6.978;2024-03-17T08:38:33;2.97;;;2.70;;
2338;SDS011;1180;51.438;6.978;2024-03-17T08:41:03;4.90;;;2.53;;
2338;SDS011;1180;51.438;6.978;2024-03-17T08:43:30;2.60;;;2.40;;
2338;SDS011;1180;51.438;6.978;2024-03-17T08:46:05;2.83;;;2.40;;
2338;SDS011;1180;51.438;6.978;2024-03-17T08:48:38;3.67;;;2.37;;
2338;SDS011;1180;51.438;6.978;2024-03-17T08:51:05;3.80;;;2.80;;
2338;SDS011;1180;51.438;6.978;2024-03-17T08:53:32;4.63;;;2.70;;
2338;SDS011;1180;51.438;6.978;2024-03-17T08:55:58;2.57;;;2.37;;
2338;SDS011;1180;51.438;6.978;2024-03-17T08:58:24;3.30;;;2.30;;
2338;SDS011;1180;51.438;6.978;2024-03-17T09:00:51;4.13;;;2.23;;
2338;SDS011;1180;51.438;6.978;2024-03-17T09:03:17;3.43;;;2.40;;
2338;SDS011;1180;51.438;6.978;2024-03-17T09:05:43;2.40;;;2.13;;
2338;SDS011;1180;51.438;6.978;2024-03-17T09:08:17;2.40;;;2.10;;
2338;SDS011;1180;51.438;6.978;2024-03-17T09:10:48;3.47;;;2.40;;
2338;SDS011;1180;51.438;6.978;2024-03-17T09:13:24;2.63;;;2.30;;
2338;SDS011;1180;51.438;6.978;2024-03-17T09:15:51;3.33;;;2.27;;
2338;SDS011;1180;51.438;6.978;2024-03-17T09:18:26;3.37;;;2.37;;
2338;SDS011;1180;51.438;6.978;2024-03-17T09:23:23;4.67;;;2.67;;
2338;SDS011;1180;51.438;6.978;2024-03-17T09:25:56;3.07;;;2.40;;
2338;SDS011;1180;51.438;6.978;2024-03-17T09:28:26;3.87;;;2.30;;
2338;SDS011;1180;51.438;6.978;2024-03-17T09:30:53;2.73;;;2.33;;
2338;SDS011;1180;51.438;6.978;2024-03-17T09:33:19;3.57;;;2.20;;
2338;SDS011;1180;51.438;6.978;2024-03-17T09:35:52;2.40;;;2.20;;
2338;SDS011;1180;51.438;6.978;2024-03-17T09:38:20;2.40;;;2.20;;
2338;SDS011;1180;51.438;6.978;2024-03-17T09:40:46;5.40;;;2.90;;
2338;SDS011;1180;51.438;6.978;2024-03-17T09:43:14;3.07;;;2.10;;
2338;SDS011;1180;51.438;6.978;2024-03-17T09:45:40;2.40;;;2.20;;
2338;SDS011;1180;51.438;6.978;2024-03-17T09:48:06;3.70;;;2.20;;
2338;SDS011;1180;51.438;6.978;2024-03-17T09:50:33;3.03;;;2.60;;
2338;SDS011;1180;51.438;6.978;2024-03-17T09:52:59;3.50;;;2.50;;
2338;SDS011;1180;51.438;6.978;2024-03-17T09:55:27;3.10;;;2.47;;
2338;SDS011;1180;51.438;6.978;2024-03-17T09:57:52;5.40;;;3.43;;
2338;SDS011;1180;51.438;6.978;2024-03-17T10:00:18;5.67;;;3.43;;
2338;SDS011;1180;51.438;6.978;2024-03-17T10:02:44;3.83;;;2.13;;
2338;SDS011;1180;51.438;6.978;2024-03-17T10:05:18;4.30;;;2.70;;
2338;SDS011;1180;51.438;6.978;2024-03-17T10:07:47;2.43;;;2.20;;
2338;SDS011;1180;51.438;6.978;2024-03-17T10:10:14;3.57;;;2.60;;
2338;SDS011;1180;51.438;6.978;2024-03-17T10:12:41;3.03;;;2.80;;
2338;SDS011;1180;51.438;6.978;2024-03-17T10:15:08;3.20;;;2.73;;
2338;SDS011;1180;51.438;6.978;2024-03-17T10:17:36;3.20;;;2.73;;
2338;SDS011;1180;51.438;6.978;2024-03-17T10:23:04;4.77;;;2.87;;
2338;SDS011;1180;51.438;6.978;2024-03-17T10:25:34;3.80;;;3.10;;
2338;SDS011;1180;51.438;6.978;2024-03-17T10:28:04;5.50;;;3.50;;
2338;SDS011;1180;51.438;6.978;2024-03-17T10:30:36;2.67;;;2.47;;
2338;SDS011;1180;51.438;6.978;2024-03-17T10:33:04;2.63;;;2.43;;
2338;SDS011;1180;51.438;6.978;2024-03-17T10:35:34;2.67;;;2.13;;
2338;SDS011;1180;51.438;6.978;2024-03-17T10:38:05;4.80;;;3.10;;
2338;SDS011;1180;51.438;6.978;2024-03-17T10:40:32;3.23;;;2.93;;
2338;SDS011;1180;51.438;6.978;2024-03-17T10:42:59;4.27;;;3.40;;
2338;SDS011;1180;51.438;6.978;2024-03-17T10:45:26;3.60;;;2.77;;
2338;SDS011;1180;51.438;6.978;2024-03-17T10:47:55;3.13;;;2.67;;
2338;SDS011;1180;51.438;6.978;2024-03-17T10:50:37;4.17;;;3.47;;
2338;SDS011;1180;51.438;6.978;2024-03-17T10:53:04;3.07;;;2.77;;
2338;SDS011;1180;51.438;6.978;2024-03-17T10:55:42;3.17;;;2.80;;
2338;SDS011;1180;51.438;6.978;2024-03-17T10:58:23;3.47;;;3.17;;
2338;SDS011;1180;51.438;6.978;2024-03-17T11:00:52;3.23;;;2.93;;
2338;SDS011;1180;51.438;6.978;2024-03-17T11:03:18;4.90;;;3.17;;
2338;SDS011;1180;51.438;6.978;2024-03-17T11:05:44;4.40;;;3.57;;
2338;SDS011;1180;51.438;6.978;2024-03-17T11:08:15;3.30;;;3.00;;
2338;SDS011;1180;51.438;6.978;2024-03-17T11:10:49;3.33;;;2.73;;
2338;SDS011;1180;51.438;6.978;2024-03-17T11:13:25;3.53;;;2.70;;
2338;SDS011;1180;51.438;6.978;2024-03-17T11:15:55;3.13;;;2.83;;
2338;SDS011;1180;51.438;6.978;2024-03-17T11:20:59;3.60;;;3.20;;
2338;SDS011;1180;51.438;6.978;2024-03-17T11:24:06;3.80;;;3.07;;
2338;SDS011;1180;51.438;6.978;2024-03-17T11:26:42;4.60;;;3.10;;
2338;SDS011;1180;51.438;6.978;2024-03-17T11:29:23;3.40;;;3.10;;
2338;SDS011;1180;51.438;6.978;2024-03-17T11:31:54;4.07;;;2.70;;
2338;SDS011;1180;51.438;6.978;2024-03-17T11:34:34;4.43;;;3.10;;
2338;SDS011;1180;51.438;6.978;2024-03-17T11:37:02;4.70;;;3.60;;
2338;SDS011;1180;51.438;6.978;2024-03-17T11:39:45;3.20;;;2.90;;
2338;SDS011;1180;51.438;6.978;2024-03-17T11:42:14;2.97;;;2.67;;
2338;SDS011;1180;51.438;6.978;2024-03-17T11:45:03;5.67;;;3.10;;
2338;SDS011;1180;51.438;6.978;2024-03-17T11:47:34;6.10;;;3.40;;
2338;SDS011;1180;51.438;6.978;2024-03-17T11:50:01;4.13;;;3.30;;
2338;SDS011;1180;51.438;6.978;2024-03-17T11:52:29;8.00;;;3.63;;
2338;SDS011;1180;51.438;6.978;2024-03-17T11:54:54;3.90;;;3.50;;
2338;SDS011;1180;51.438;6.978;2024-03-17T11:57:20;4.57;;;3.50;;
2338;SDS011;1180;51.438;6.978;2024-03-17T11:59:47;3.97;;;3.57;;
2338;SDS011;1180;51.438;6.978;2024-03-17T12:04:51;4.53;;;3.53;;
2338;SDS011;1180;51.438;6.978;2024-03-17T12:07:19;8.33;;;4.13;;
2338;SDS011;1180;51.438;6.978;2024-03-17T12:09:48;5.27;;;3.37;;
2338;SDS011;1180;51.438;6.978;2024-03-17T12:12:22;3.63;;;3.33;;
2338;SDS011;1180;51.438;6.978;2024-03-17T12:14:50;4.40;;;3.30;;
2338;SDS011;1180;51.438;6.978;2024-03-17T12:17:22;3.90;;;3.10;;
2338;SDS011;1180;51.438;6.978;2024-03-17T12:19:50;6.13;;;3.20;;
2338;SDS011;1180;51.438;6.978;2024-03-17T12:22:20;3.40;;;3.03;;
2338;SDS011;1180;51.438;6.978;2024-03-17T12:24:54;3.97;;;3.37;;
2338;SDS011;1180;51.438;6.978;2024-03-17T12:27:21;6.03;;;3.30;;
2338;SDS011;1180;51.438;6.978;2024-03-17T12:29:48;6.10;;;4.07;;
2338;SDS011;1180;51.438;6.978;2024-03-17T12:32:22;3.50;;;3.00;;
2338;SDS011;1180;51.438;6.978;2024-03-17T12:34:52;3.40;;;3.10;;
2338;SDS011;1180;51.438;6.978;2024-03-17T12:37:21;4.47;;;2.57;;
2338;SDS011;1180;51.438;6.978;2024-03-17T12:39:48;5.40;;;2.63;;
2338;SDS011;1180;51.438;6.978;2024-03-17T12:42:16;3.63;;;3.33;;
2338;SDS011;1180;51.438;6.978;2024-03-17T12:44:51;3.00;;;2.60;;
2338;SDS011;1180;51.438;6.978;2024-03-17T12:47:21;4.97;;;3.67;;
2338;SDS011;1180;51.438;6.978;2024-03-17T12:49:51;5.47;;;2.97;;
2338;SDS011;1180;51.438;6.978;2024-03-17T12:52:26;5.47;;;3.33;;
2338;SDS011;1180;51.438;6.978;2024-03-17T12:55:08;3.30;;;3.00;;
2338;SDS011;1180;51.438;6.978;2024-03-17T12:58:05;3.17;;;2.73;;
2338;SDS011;1180;51.438;6.978;2024-03-17T13:01:00;2.43;;;2.20;;
2338;SDS011;1180;51.438;6.978;2024-03-17T13:03:30;2.90;;;2.57;;
2338;SDS011;1180;51.438;6.978;2024-03-17T13:05:58;3.10;;;2.63;;
2338;SDS011;1180;51.438;6.978;2024-03-17T13:08:25;3.57;;;3.27;;
2338;SDS011;1180;51.438;6.978;2024-03-17T13:10:50;3.40;;;2.87;;
2338;SDS011;1180;51.438;6.978;2024-03-17T13:13:16;3.13;;;2.83;;
2338;SDS011;1180;51.438;6.978;2024-03-17T13:15:42;3.00;;;2.43;;
2338;SDS011;1180;51.438;6.978;2024-03-17T13:18:09;3.43;;;2.80;;
2338;SDS011;1180;51.438;6.978;2024-03-17T13:20:34;2.70;;;2.33;;
2338;SDS011;1180;51.438;6.978;2024-03-17T13:23:01;2.70;;;2.50;;
2338;SDS011;1180;51.438;6.978;2024-03-17T13:25:27;3.60;;;2.90;;
2338;SDS011;1180;51.438;6.978;2024-03-17T13:28:03;7.90;;;3.40;;
2338;SDS011;1180;51.438;6.978;2024-03-17T13:30:30;3.13;;;2.83;;
2338;SDS011;1180;51.438;6.978;2024-03-17T13:32:56;4.30;;;2.30;;
2338;SDS011;1180;51.438;6.978;2024-03-17T13:35:25;3.83;;;2.13;;
2338;SDS011;1180;51.438;6.978;2024-03-17T13:37:52;3.70;;;2.87;;
2338;SDS011;1180;51.438;6.978;2024-03-17T13:40:21;3.00;;;2.37;;
2338;SDS011;1180;51.438;6.978;2024-03-17T13:42:48;5.67;;;2.90;;
2338;SDS011;1180;51.438;6.978;2024-03-17T13:45:15;2.80;;;2.43;;
2338;SDS011;1180;51.438;6.978;2024-03-17T13:47:45;4.03;;;2.73;;
2338;SDS011;1180;51.438;6.978;2024-03-17T13:50:12;3.70;;;2.60;;
2338;SDS011;1180;51.438;6.978;2024-03-17T13:52:38;2.63;;;2.10;;
2338;SDS011;1180;51.438;6.978;2024-03-17T13:55:20;2.73;;;2.30;;
2338;SDS011;1180;51.438;6.978;2024-03-17T13:57:47;2.83;;;2.30;;
2338;SDS011;1180;51.438;6.978;2024-03-17T14:00:16;4.90;;;2.40;;
2338;SDS011;1180;51.438;6.978;2024-03-17T14:02:45;4.13;;;2.57;;
2338;SDS011;1180;51.438;6.978;2024-03-17T14:05:14;3.37;;;2.23;;
2338;SDS011;1180;51.438;6.978;2024-03-17T14:07:42;2.70;;;2.00;;
2338;SDS011;1180;51.438;6.978;2024-03-17T14:10:08;3.10;;;2.73;;
2338;SDS011;1180;51.438;6.978;2024-03-17T14:12:35;1.77;;;1.67;;
2338;SDS011;1180;51.438;6.978;2024-03-17T14:15:07;2.27;;;2.07;;
2338;SDS011;1180;51.438;6.978;2024-03-17T14:17:43;6.57;;;2.50;;
2338;SDS011;1180;51.438;6.978;2024-03-17T14:20:10;2.90;;;2.20;;
2338;SDS011;1180;51.438;6.978;2024-03-17T14:22:37;3.20;;;2.43;;
2338;SDS011;1180;51.438;6.978;2024-03-17T14:25:08;2.00;;;1.90;;
2338;SDS011;1180;51.438;6.978;2024-03-17T14:27:36;2.13;;;1.97;;
2338;SDS011;1180;51.438;6.978;2024-03-17T14:30:02;4.20;;;2.13;;
2338;SDS011;1180;51.438;6.978;2024-03-17T14:32:29;4.80;;;2.00;;
2338;SDS011;1180;51.438;6.978;2024-03-17T14:34:54;2.60;;;2.40;;
2338;SDS011;1180;51.438;6.978;2024-03-17T14:37:21;2.70;;;2.50;;
2338;SDS011;1180;51.438;6.978;2024-03-17T14:39:47;3.73;;;2.10;;
2338;SDS011;1180;51.438;6.978;2024-03-17T14:42:14;3.93;;;2.27;;
2338;SDS011;1180;51.438;6.978;2024-03-17T14:44:39;2.30;;;2.07;;
2338;SDS011;1180;51.438;6.978;2024-03-17T14:47:05;4.40;;;2.07;;
2338;SDS011;1180;51.438;6.978;2024-03-17T14:49:31;2.40;;;2.00;;
2338;SDS011;1180;51.438;6.978;2024-03-17T14:51:57;2.40;;;1.80;;
2338;SDS011;1180;51.438;6.978;2024-03-17T14:54:22;2.07;;;1.70;;
2338;SDS011;1180;51.438;6.978;2024-03-17T14:56:48;1.43;;;1.33;;
2338;SDS011;1180;51.438;6.978;2024-03-17T14:59:13;2.00;;;1.60;;
2338;SDS011;1180;51.438;6.978;2024-03-17T15:01:42;2.37;;;1.87;;
2338;SDS011;1180;51.438;6.978;2024-03-17T15:04:08;1.70;;;1.60;;
2338;SDS011;1180;51.438;6.978;2024-03-17T15:06:33;3.50;;;1.97;;
2338;SDS011;1180;51.438;6.978;2024-03-17T15:09:01;3.90;;;1.50;;
2338;SDS011;1180;51.438;6.978;2024-03-17T15:11:27;2.17;;;1.50;;
2338;SDS011;1180;51.438;6.978;2024-03-17T15:13:53;2.23;;;2.03;;
2338;SDS011;1180;51.438;6.978;2024-03-17T15:16:18;2.20;;;1.83;;
2338;SDS011;1180;51.438;6.978;2024-03-17T15:18:44;2.50;;;2.27;;
2338;SDS011;1180;51.438;6.978;2024-03-17T15:21:09;2.67;;;1.90;;
2338;SDS011;1180;51.438;6.978;2024-03-17T15:23:35;3.43;;;1.80;;
2338;SDS011;1180;51.438;6.978;2024-03-17T15:26:01;2.00;;;1.80;;
2338;SDS011;1180;51.438;6.978;2024-03-17T15:28:43;2.63;;;2.03;;
2338;SDS011;1180;51.438;6.978;2024-03-17T15:31:09;2.00;;;1.80;;